sensor_id;sensor_type;location;lat;lon;timestamp;P1;durP1;ratioP1;P2;durP2;ratioP2
58384;SDS011;44185;47.844;8.966;2023-08-31T00:01:38;7.15;;;4.72;;
58384;SDS011;44185;47.844;8.966;2023-08-31T00:04:04;6.53;;;4.50;;
58384;SDS011;44185;47.844;8.966;2023-08-31T00:06:30;7.70;;;4.65;;
58384;SDS011;44185;47.844;8.966;2023-08-31T00:08:57;8.68;;;5.28;;
58384;SDS011;44185;47.844;8.966;2023-08-31T00:11:23;6.38;;;4.55;;
58384;SDS011;44185;47.844;8.966;2023-08-31T00:13:48;8.02;;;4.50;;
58384;SDS011;44185;47.844;8.966;2023-08-31T00:16:14;8.23;;;4.40;;
58384;SDS011;44185;47.844;8.966;2023-08-31T00:18:40;8.73;;;5.00;;
58384;SDS011;44185;47.844;8.966;2023-08-31T00:21:06;8.23;;;4.68;;
58384;SDS011;44185;47.844;8.966;2023-08-31T00:23:31;6.82;;;4.53;;
58384;SDS011;44185;47.844;8.966;2023-08-31T00:25:58;9.13;;;4.40;;
58384;SDS011;44185;47.844;8.966;2023-08-31T00:28:23;6.68;;;3.60;;
58384;SDS011;44185;47.844;8.966;2023-08-31T00:30:49;5.55;;;3.63;;
58384;SDS011;44185;47.844;8.966;2023-08-31T00:33:14;6.70;;;4.15;;
58384;SDS011;44185;47.844;8.966;2023-08-31T00:35:40;5.18;;;3.60;;
58384;SDS011;44185;47.844;8.966;2023-08-31T00:38:05;6.82;;;3.70;;
58384;SDS011;44185;47.844;8.966;2023-08-31T00:40:31;4.80;;;3.60;;
58384;SDS011;44185;47.844;8.966;2023-08-31T00:42:58;5.63;;;3.83;;
58384;SDS011;44185;47.844;8.966;2023-08-31T00:45:24;6.03;;;4.25;;
58384;SDS011;44185;47.844;8.966;2023-08-31T00:47:49;7.05;;;4.22;;
58384;SDS011;44185;47.844;8.966;2023-08-31T00:50:15;6.97;;;3.90;;
58384;SDS011;44185;47.844;8.966;2023-08-31T00:52:41;7.72;;;4.10;;
58384;SDS011;44185;47.844;8.966;2023-08-31T00:55:07;10.32;;;4.97;;
58384;SDS011;44185;47.844;8.966;2023-08-31T00:57:33;8.85;;;4.80;;
58384;SDS011;44185;47.844;8.966;2023-08-31T01:00:00;7.70;;;4.65;;
58384;SDS011;44185;47.844;8.966;2023-08-31T01:02:29;11.35;;;4.63;;
58384;SDS011;44185;47.844;8.966;2023-08-31T01:05:01;10.40;;;4.60;;
58384;SDS011;44185;47.844;8.966;2023-08-31T01:07:34;6.57;;;3.70;;
58384;SDS011;44185;47.844;8.966;2023-08-31T01:10:11;5.95;;;3.40;;
58384;SDS011;44185;47.844;8.966;2023-08-31T01:12:44;6.85;;;3.10;;
58384;SDS011;44185;47.844;8.966;2023-08-31T01:15:17;4.95;;;3.38;;
58384;SDS011;44185;47.844;8.966;2023-08-31T01:17:44;4.72;;;3.00;;
58384;SDS011;44185;47.844;8.966;2023-08-31T01:20:11;5.47;;;3.17;;
58384;SDS011;44185;47.844;8.966;2023-08-31T01:25:10;7.10;;;3.60;;
58384;SDS011;44185;47.844;8.966;2023-08-31T01:27:36;7.35;;;4.00;;
58384;SDS011;44185;47.844;8.966;2023-08-31T01:30:02;9.85;;;4.10;;
58384;SDS011;44185;47.844;8.966;2023-08-31T01:32:28;5.97;;;3.63;;
58384;SDS011;44185;47.844;8.966;2023-08-31T01:34:54;3.58;;;2.90;;
58384;SDS011;44185;47.844;8.966;2023-08-31T01:37:24;4.68;;;3.20;;
58384;SDS011;44185;47.844;8.966;2023-08-31T01:39:56;4.57;;;2.90;;
58384;SDS011;44185;47.844;8.966;2023-08-31T01:42:26;4.60;;;3.20;;
58384;SDS011;44185;47.844;8.966;2023-08-31T01:44:54;5.00;;;3.03;;
58384;SDS011;44185;47.844;8.966;2023-08-31T01:47:21;4.35;;;2.95;;
58384;SDS011;44185;47.844;8.966;2023-08-31T01:49:47;5.25;;;3.35;;
58384;SDS011;44185;47.844;8.966;2023-08-31T01:52:13;5.22;;;3.05;;
58384;SDS011;44185;47.844;8.966;2023-08-31T01:54:38;4.55;;;3.30;;
58384;SDS011;44185;47.844;8.966;2023-08-31T01:57:04;5.57;;;3.00;;
58384;SDS011;44185;47.844;8.966;2023-08-31T01:59:31;6.18;;;2.80;;
58384;SDS011;44185;47.844;8.966;2023-08-31T02:01:56;5.95;;;3.25;;
58384;SDS011;44185;47.844;8.966;2023-08-31T02:04:22;4.10;;;3.08;;
58384;SDS011;44185;47.844;8.966;2023-08-31T02:06:47;4.18;;;3.00;;
58384;SDS011;44185;47.844;8.966;2023-08-31T02:09:13;4.72;;;2.80;;
58384;SDS011;44185;47.844;8.966;2023-08-31T02:11:39;3.33;;;2.50;;
58384;SDS011;44185;47.844;8.966;2023-08-31T02:14:04;4.38;;;2.92;;
58384;SDS011;44185;47.844;8.966;2023-08-31T02:16:31;4.55;;;3.00;;
58384;SDS011;44185;47.844;8.966;2023-08-31T02:18:56;7.20;;;3.42;;
58384;SDS011;44185;47.844;8.966;2023-08-31T02:21:22;5.55;;;3.38;;
58384;SDS011;44185;47.844;8.966;2023-08-31T02:23:48;8.15;;;3.70;;
58384;SDS011;44185;47.844;8.966;2023-08-31T02:26:13;8.88;;;3.90;;
58384;SDS011;44185;47.844;8.966;2023-08-31T02:28:39;9.88;;;4.63;;
58384;SDS011;44185;47.844;8.966;2023-08-31T02:31:04;8.57;;;4.53;;
58384;SDS011;44185;47.844;8.966;2023-08-31T02:33:31;8.77;;;4.72;;
58384;SDS011;44185;47.844;8.966;2023-08-31T02:35:56;8.20;;;4.05;;
58384;SDS011;44185;47.844;8.966;2023-08-31T02:38:22;6.32;;;4.05;;
58384;SDS011;44185;47.844;8.966;2023-08-31T02:40:48;7.95;;;3.95;;
58384;SDS011;44185;47.844;8.966;2023-08-31T02:43:14;7.32;;;3.95;;
58384;SDS011;44185;47.844;8.966;2023-08-31T02:45:39;6.13;;;3.78;;
58384;SDS011;44185;47.844;8.966;2023-08-31T02:48:06;8.65;;;4.05;;
58384;SDS011;44185;47.844;8.966;2023-08-31T02:50:33;13.02;;;5.85;;
58384;SDS011;44185;47.844;8.966;2023-08-31T02:52:59;10.75;;;4.88;;
58384;SDS011;44185;47.844;8.966;2023-08-31T02:55:24;9.93;;;4.22;;
58384;SDS011;44185;47.844;8.966;2023-08-31T02:57:50;5.97;;;3.53;;
58384;SDS011;44185;47.844;8.966;2023-08-31T03:00:15;5.90;;;3.65;;
58384;SDS011;44185;47.844;8.966;2023-08-31T03:02:41;5.30;;;3.15;;
58384;SDS011;44185;47.844;8.966;2023-08-31T03:05:07;8.23;;;4.25;;
58384;SDS011;44185;47.844;8.966;2023-08-31T03:07:34;10.35;;;4.35;;
58384;SDS011;44185;47.844;8.966;2023-08-31T03:09:59;9.05;;;3.83;;
58384;SDS011;44185;47.844;8.966;2023-08-31T03:12:25;7.13;;;3.83;;
58384;SDS011;44185;47.844;8.966;2023-08-31T03:14:50;6.05;;;4.00;;
58384;SDS011;44185;47.844;8.966;2023-08-31T03:17:16;7.90;;;4.53;;
58384;SDS011;44185;47.844;8.966;2023-08-31T03:19:41;10.10;;;4.80;;
58384;SDS011;44185;47.844;8.966;2023-08-31T03:22:06;7.90;;;4.32;;
58384;SDS011;44185;47.844;8.966;2023-08-31T03:24:33;8.32;;;4.38;;
58384;SDS011;44185;47.844;8.966;2023-08-31T03:26:59;4.88;;;3.50;;
58384;SDS011;44185;47.844;8.966;2023-08-31T03:29:24;8.50;;;3.78;;
58384;SDS011;44185;47.844;8.966;2023-08-31T03:31:49;7.63;;;4.00;;
58384;SDS011;44185;47.844;8.966;2023-08-31T03:34:15;5.97;;;3.63;;
58384;SDS011;44185;47.844;8.966;2023-08-31T03:36:40;5.15;;;3.58;;
58384;SDS011;44185;47.844;8.966;2023-08-31T03:39:06;7.95;;;3.72;;
58384;SDS011;44185;47.844;8.966;2023-08-31T03:41:33;4.95;;;3.25;;
58384;SDS011;44185;47.844;8.966;2023-08-31T03:43:59;6.32;;;3.30;;
58384;SDS011;44185;47.844;8.966;2023-08-31T03:46:24;5.05;;;2.75;;
58384;SDS011;44185;47.844;8.966;2023-08-31T03:48:50;4.90;;;2.95;;
58384;SDS011;44185;47.844;8.966;2023-08-31T03:51:15;7.85;;;3.60;;
58384;SDS011;44185;47.844;8.966;2023-08-31T03:53:40;6.53;;;3.80;;
58384;SDS011;44185;47.844;8.966;2023-08-31T03:56:06;5.95;;;3.72;;
58384;SDS011;44185;47.844;8.966;2023-08-31T03:58:33;8.18;;;4.80;;
58384;SDS011;44185;47.844;8.966;2023-08-31T04:00:58;8.55;;;4.40;;
58384;SDS011;44185;47.844;8.966;2023-08-31T04:03:23;9.65;;;4.70;;
58384;SDS011;44185;47.844;8.966;2023-08-31T04:05:53;8.23;;;4.43;;
58384;SDS011;44185;47.844;8.966;2023-08-31T04:08:19;9.87;;;4.87;;
58384;SDS011;44185;47.844;8.966;2023-08-31T04:10:44;8.85;;;4.40;;
58384;SDS011;44185;47.844;8.966;2023-08-31T04:13:10;9.07;;;4.47;;
58384;SDS011;44185;47.844;8.966;2023-08-31T04:15:37;8.75;;;4.40;;
58384;SDS011;44185;47.844;8.966;2023-08-31T04:18:02;7.45;;;3.97;;
58384;SDS011;44185;47.844;8.966;2023-08-31T04:20:28;7.97;;;4.00;;
58384;SDS011;44185;47.844;8.966;2023-08-31T04:22:53;7.40;;;3.60;;
58384;SDS011;44185;47.844;8.966;2023-08-31T04:25:19;4.25;;;3.40;;
58384;SDS011;44185;47.844;8.966;2023-08-31T04:27:44;6.28;;;3.90;;
58384;SDS011;44185;47.844;8.966;2023-08-31T04:30:11;7.97;;;4.22;;
58384;SDS011;44185;47.844;8.966;2023-08-31T04:32:38;6.38;;;3.38;;
58384;SDS011;44185;47.844;8.966;2023-08-31T04:35:04;7.22;;;4.15;;
58384;SDS011;44185;47.844;8.966;2023-08-31T04:37:29;8.50;;;4.07;;
58384;SDS011;44185;47.844;8.966;2023-08-31T04:39:55;8.38;;;4.25;;
58384;SDS011;44185;47.844;8.966;2023-08-31T04:42:20;6.00;;;3.97;;
58384;SDS011;44185;47.844;8.966;2023-08-31T04:44:46;8.02;;;4.50;;
58384;SDS011;44185;47.844;8.966;2023-08-31T04:47:11;9.23;;;4.70;;
58384;SDS011;44185;47.844;8.966;2023-08-31T04:49:38;9.15;;;4.68;;
58384;SDS011;44185;47.844;8.966;2023-08-31T04:52:04;10.52;;;5.28;;
58384;SDS011;44185;47.844;8.966;2023-08-31T04:54:30;9.15;;;4.40;;
58384;SDS011;44185;47.844;8.966;2023-08-31T04:56:55;8.48;;;4.47;;
58384;SDS011;44185;47.844;8.966;2023-08-31T04:59:21;10.40;;;4.75;;
58384;SDS011;44185;47.844;8.966;2023-08-31T05:01:46;7.78;;;4.70;;
58384;SDS011;44185;47.844;8.966;2023-08-31T05:04:12;7.47;;;4.30;;
58384;SDS011;44185;47.844;8.966;2023-08-31T05:06:38;8.30;;;4.00;;
58384;SDS011;44185;47.844;8.966;2023-08-31T05:09:04;6.35;;;3.90;;
58384;SDS011;44185;47.844;8.966;2023-08-31T05:11:29;7.00;;;3.55;;
58384;SDS011;44185;47.844;8.966;2023-08-31T05:13:55;5.83;;;3.60;;
58384;SDS011;44185;47.844;8.966;2023-08-31T05:16:20;6.10;;;3.42;;
58384;SDS011;44185;47.844;8.966;2023-08-31T05:18:46;8.85;;;4.03;;
58384;SDS011;44185;47.844;8.966;2023-08-31T05:21:13;7.38;;;4.05;;
58384;SDS011;44185;47.844;8.966;2023-08-31T05:23:39;7.90;;;4.05;;
58384;SDS011;44185;47.844;8.966;2023-08-31T05:26:05;8.02;;;4.40;;
58384;SDS011;44185;47.844;8.966;2023-08-31T05:28:30;8.38;;;4.25;;
58384;SDS011;44185;47.844;8.966;2023-08-31T05:30:56;8.63;;;4.23;;
58384;SDS011;44185;47.844;8.966;2023-08-31T05:33:22;7.97;;;4.85;;
58384;SDS011;44185;47.844;8.966;2023-08-31T05:35:48;8.77;;;4.53;;
58384;SDS011;44185;47.844;8.966;2023-08-31T05:38:13;8.45;;;4.63;;
58384;SDS011;44185;47.844;8.966;2023-08-31T05:40:40;9.27;;;5.17;;
58384;SDS011;44185;47.844;8.966;2023-08-31T05:43:05;9.82;;;4.60;;
58384;SDS011;44185;47.844;8.966;2023-08-31T05:45:31;8.48;;;4.30;;
58384;SDS011;44185;47.844;8.966;2023-08-31T05:47:57;8.18;;;4.80;;
58384;SDS011;44185;47.844;8.966;2023-08-31T05:50:22;11.73;;;4.78;;
58384;SDS011;44185;47.844;8.966;2023-08-31T05:52:48;9.38;;;4.80;;
58384;SDS011;44185;47.844;8.966;2023-08-31T05:55:13;9.70;;;4.55;;
58384;SDS011;44185;47.844;8.966;2023-08-31T05:57:40;11.20;;;5.57;;
58384;SDS011;44185;47.844;8.966;2023-08-31T06:00:06;10.32;;;5.68;;
58384;SDS011;44185;47.844;8.966;2023-08-31T06:02:32;11.50;;;6.25;;
58384;SDS011;44185;47.844;8.966;2023-08-31T06:04:58;8.75;;;5.63;;
58384;SDS011;44185;47.844;8.966;2023-08-31T06:07:23;9.13;;;5.07;;
58384;SDS011;44185;47.844;8.966;2023-08-31T06:09:49;9.77;;;5.25;;
58384;SDS011;44185;47.844;8.966;2023-08-31T06:12:14;10.25;;;5.45;;
58384;SDS011;44185;47.844;8.966;2023-08-31T06:14:41;8.43;;;5.15;;
58384;SDS011;44185;47.844;8.966;2023-08-31T06:17:06;8.88;;;4.20;;
58384;SDS011;44185;47.844;8.966;2023-08-31T06:19:32;6.30;;;3.90;;
58384;SDS011;44185;47.844;8.966;2023-08-31T06:21:58;4.93;;;3.35;;
58384;SDS011;44185;47.844;8.966;2023-08-31T06:24:23;7.80;;;4.07;;
58384;SDS011;44185;47.844;8.966;2023-08-31T06:26:49;6.43;;;3.60;;
58384;SDS011;44185;47.844;8.966;2023-08-31T06:29:14;7.75;;;3.90;;
58384;SDS011;44185;47.844;8.966;2023-08-31T06:31:41;5.53;;;3.50;;
58384;SDS011;44185;47.844;8.966;2023-08-31T06:34:06;5.25;;;3.17;;
58384;SDS011;44185;47.844;8.966;2023-08-31T06:36:32;3.80;;;2.90;;
58384;SDS011;44185;47.844;8.966;2023-08-31T06:38:58;3.95;;;3.03;;
58384;SDS011;44185;47.844;8.966;2023-08-31T06:41:23;7.07;;;3.30;;
58384;SDS011;44185;47.844;8.966;2023-08-31T06:43:49;5.30;;;3.00;;
58384;SDS011;44185;47.844;8.966;2023-08-31T06:46:14;6.10;;;3.60;;
58384;SDS011;44185;47.844;8.966;2023-08-31T06:48:41;4.88;;;3.33;;
58384;SDS011;44185;47.844;8.966;2023-08-31T06:51:06;6.75;;;3.30;;
58384;SDS011;44185;47.844;8.966;2023-08-31T06:53:32;4.70;;;2.90;;
58384;SDS011;44185;47.844;8.966;2023-08-31T06:55:58;4.78;;;2.47;;
58384;SDS011;44185;47.844;8.966;2023-08-31T06:58:23;5.53;;;2.78;;
58384;SDS011;44185;47.844;8.966;2023-08-31T07:00:49;6.35;;;2.90;;
58384;SDS011;44185;47.844;8.966;2023-08-31T07:03:14;3.92;;;2.40;;
58384;SDS011;44185;47.844;8.966;2023-08-31T07:05:42;7.00;;;2.67;;
58384;SDS011;44185;47.844;8.966;2023-08-31T07:08:08;4.93;;;2.80;;
58384;SDS011;44185;47.844;8.966;2023-08-31T07:10:34;6.15;;;2.60;;
58384;SDS011;44185;47.844;8.966;2023-08-31T07:12:59;5.75;;;2.65;;
58384;SDS011;44185;47.844;8.966;2023-08-31T07:15:25;6.40;;;2.45;;
58384;SDS011;44185;47.844;8.966;2023-08-31T07:17:50;5.22;;;2.30;;
58384;SDS011;44185;47.844;8.966;2023-08-31T07:20:15;4.35;;;2.40;;
58384;SDS011;44185;47.844;8.966;2023-08-31T07:22:42;3.97;;;2.30;;
58384;SDS011;44185;47.844;8.966;2023-08-31T07:25:08;3.97;;;2.40;;
58384;SDS011;44185;47.844;8.966;2023-08-31T07:27:33;4.55;;;2.78;;
58384;SDS011;44185;47.844;8.966;2023-08-31T07:29:59;5.55;;;2.40;;
58384;SDS011;44185;47.844;8.966;2023-08-31T07:32:24;4.53;;;2.67;;
58384;SDS011;44185;47.844;8.966;2023-08-31T07:34:50;5.95;;;2.65;;
58384;SDS011;44185;47.844;8.966;2023-08-31T07:37:15;3.35;;;2.30;;
58384;SDS011;44185;47.844;8.966;2023-08-31T07:39:42;4.93;;;2.60;;
58384;SDS011;44185;47.844;8.966;2023-08-31T07:42:07;3.45;;;2.08;;
58384;SDS011;44185;47.844;8.966;2023-08-31T07:44:33;4.13;;;2.22;;
58384;SDS011;44185;47.844;8.966;2023-08-31T07:46:58;4.50;;;2.25;;
58384;SDS011;44185;47.844;8.966;2023-08-31T07:49:24;5.53;;;2.50;;
58384;SDS011;44185;47.844;8.966;2023-08-31T07:51:49;5.13;;;2.42;;
58384;SDS011;44185;47.844;8.966;2023-08-31T07:54:19;3.50;;;2.58;;
58384;SDS011;44185;47.844;8.966;2023-08-31T07:59:11;4.82;;;2.63;;
58384;SDS011;44185;47.844;8.966;2023-08-31T08:01:36;4.00;;;2.55;;
58384;SDS011;44185;47.844;8.966;2023-08-31T08:04:02;4.63;;;2.50;;
58384;SDS011;44185;47.844;8.966;2023-08-31T08:06:28;4.55;;;2.70;;
58384;SDS011;44185;47.844;8.966;2023-08-31T08:08:53;5.63;;;2.50;;
58384;SDS011;44185;47.844;8.966;2023-08-31T08:11:19;5.88;;;2.45;;
58384;SDS011;44185;47.844;8.966;2023-08-31T08:13:45;4.63;;;2.50;;
58384;SDS011;44185;47.844;8.966;2023-08-31T08:16:11;4.68;;;2.20;;
58384;SDS011;44185;47.844;8.966;2023-08-31T08:18:36;4.00;;;1.88;;
58384;SDS011;44185;47.844;8.966;2023-08-31T08:21:02;3.15;;;2.00;;
58384;SDS011;44185;47.844;8.966;2023-08-31T08:23:28;4.35;;;2.13;;
58384;SDS011;44185;47.844;8.966;2023-08-31T08:25:53;3.33;;;2.00;;
58384;SDS011;44185;47.844;8.966;2023-08-31T08:28:18;5.38;;;2.63;;
58384;SDS011;44185;47.844;8.966;2023-08-31T08:30:45;3.65;;;2.17;;
58384;SDS011;44185;47.844;8.966;2023-08-31T08:33:11;3.88;;;1.92;;
58384;SDS011;44185;47.844;8.966;2023-08-31T08:35:37;5.18;;;2.33;;
58384;SDS011;44185;47.844;8.966;2023-08-31T08:38:02;5.50;;;2.72;;
58384;SDS011;44185;47.844;8.966;2023-08-31T08:40:28;9.95;;;4.30;;
58384;SDS011;44185;47.844;8.966;2023-08-31T08:42:55;6.10;;;3.15;;
58384;SDS011;44185;47.844;8.966;2023-08-31T08:45:25;4.83;;;2.80;;
58384;SDS011;44185;47.844;8.966;2023-08-31T08:47:56;7.28;;;3.35;;
58384;SDS011;44185;47.844;8.966;2023-08-31T08:50:22;6.53;;;2.90;;
58384;SDS011;44185;47.844;8.966;2023-08-31T08:52:49;6.17;;;2.87;;
58384;SDS011;44185;47.844;8.966;2023-08-31T08:55:15;5.05;;;2.65;;
58384;SDS011;44185;47.844;8.966;2023-08-31T08:57:41;7.05;;;2.70;;
58384;SDS011;44185;47.844;8.966;2023-08-31T09:00:07;6.07;;;2.47;;
58384;SDS011;44185;47.844;8.966;2023-08-31T09:02:33;5.55;;;2.45;;
58384;SDS011;44185;47.844;8.966;2023-08-31T09:05:01;4.75;;;2.35;;
58384;SDS011;44185;47.844;8.966;2023-08-31T09:07:27;3.10;;;1.90;;
58384;SDS011;44185;47.844;8.966;2023-08-31T09:09:54;4.05;;;2.50;;
58384;SDS011;44185;47.844;8.966;2023-08-31T09:12:21;3.72;;;2.70;;
58384;SDS011;44185;47.844;8.966;2023-08-31T09:14:57;4.40;;;2.15;;
58384;SDS011;44185;47.844;8.966;2023-08-31T09:17:23;4.72;;;2.58;;
58384;SDS011;44185;47.844;8.966;2023-08-31T09:19:57;3.88;;;2.25;;
58384;SDS011;44185;47.844;8.966;2023-08-31T09:22:25;4.55;;;2.28;;
58384;SDS011;44185;47.844;8.966;2023-08-31T09:24:50;4.20;;;2.10;;
58384;SDS011;44185;47.844;8.966;2023-08-31T09:27:15;7.63;;;2.65;;
58384;SDS011;44185;47.844;8.966;2023-08-31T09:29:44;4.15;;;2.33;;
58384;SDS011;44185;47.844;8.966;2023-08-31T09:32:10;4.00;;;2.30;;
58384;SDS011;44185;47.844;8.966;2023-08-31T09:34:41;5.40;;;2.50;;
58384;SDS011;44185;47.844;8.966;2023-08-31T09:37:07;4.20;;;2.10;;
58384;SDS011;44185;47.844;8.966;2023-08-31T09:39:38;6.03;;;2.60;;
58384;SDS011;44185;47.844;8.966;2023-08-31T09:42:04;6.07;;;2.20;;
58384;SDS011;44185;47.844;8.966;2023-08-31T09:44:30;6.40;;;1.90;;
58384;SDS011;44185;47.844;8.966;2023-08-31T09:46:55;4.68;;;2.22;;
58384;SDS011;44185;47.844;8.966;2023-08-31T09:49:22;6.85;;;2.25;;
58384;SDS011;44185;47.844;8.966;2023-08-31T09:51:49;4.40;;;2.08;;
58384;SDS011;44185;47.844;8.966;2023-08-31T09:54:16;3.90;;;1.95;;
58384;SDS011;44185;47.844;8.966;2023-08-31T09:56:44;2.17;;;1.10;;
58384;SDS011;44185;47.844;8.966;2023-08-31T09:59:11;3.30;;;2.53;;
58384;SDS011;44185;47.844;8.966;2023-08-31T10:01:38;5.57;;;2.17;;
58384;SDS011;44185;47.844;8.966;2023-08-31T10:04:04;5.25;;;2.20;;
58384;SDS011;44185;47.844;8.966;2023-08-31T10:06:31;6.25;;;3.05;;
58384;SDS011;44185;47.844;8.966;2023-08-31T10:08:57;4.13;;;1.95;;
58384;SDS011;44185;47.844;8.966;2023-08-31T10:11:23;3.90;;;2.00;;
58384;SDS011;44185;47.844;8.966;2023-08-31T10:13:51;10.30;;;2.83;;
58384;SDS011;44185;47.844;8.966;2023-08-31T10:16:17;4.75;;;2.33;;
58384;SDS011;44185;47.844;8.966;2023-08-31T10:18:43;3.70;;;2.00;;
58384;SDS011;44185;47.844;8.966;2023-08-31T10:21:09;2.38;;;2.10;;
58384;SDS011;44185;47.844;8.966;2023-08-31T10:23:35;3.67;;;2.28;;
58384;SDS011;44185;47.844;8.966;2023-08-31T10:26:01;4.65;;;2.28;;
58384;SDS011;44185;47.844;8.966;2023-08-31T10:28:28;3.45;;;2.03;;
58384;SDS011;44185;47.844;8.966;2023-08-31T10:31:01;4.63;;;2.40;;
58384;SDS011;44185;47.844;8.966;2023-08-31T10:33:26;4.85;;;2.30;;
58384;SDS011;44185;47.844;8.966;2023-08-31T10:35:52;3.17;;;1.95;;
58384;SDS011;44185;47.844;8.966;2023-08-31T10:38:23;3.63;;;1.75;;
58384;SDS011;44185;47.844;8.966;2023-08-31T10:41:00;3.15;;;1.95;;
58384;SDS011;44185;47.844;8.966;2023-08-31T10:43:26;2.88;;;1.90;;
58384;SDS011;44185;47.844;8.966;2023-08-31T10:45:52;4.28;;;1.95;;
58384;SDS011;44185;47.844;8.966;2023-08-31T10:48:19;4.55;;;2.13;;
58384;SDS011;44185;47.844;8.966;2023-08-31T10:50:45;4.75;;;2.10;;
58384;SDS011;44185;47.844;8.966;2023-08-31T10:53:11;7.13;;;2.55;;
58384;SDS011;44185;47.844;8.966;2023-08-31T10:55:49;5.72;;;1.98;;
58384;SDS011;44185;47.844;8.966;2023-08-31T10:58:15;6.43;;;2.20;;
58384;SDS011;44185;47.844;8.966;2023-08-31T11:00:46;8.82;;;2.42;;
58384;SDS011;44185;47.844;8.966;2023-08-31T11:03:15;3.60;;;2.05;;
58384;SDS011;44185;47.844;8.966;2023-08-31T11:05:51;5.00;;;2.53;;
58384;SDS011;44185;47.844;8.966;2023-08-31T11:08:20;4.47;;;2.10;;
58384;SDS011;44185;47.844;8.966;2023-08-31T11:10:46;3.78;;;2.15;;
58384;SDS011;44185;47.844;8.966;2023-08-31T11:13:15;3.55;;;1.75;;
58384;SDS011;44185;47.844;8.966;2023-08-31T11:15:44;4.75;;;2.17;;
58384;SDS011;44185;47.844;8.966;2023-08-31T11:18:10;6.00;;;1.83;;
58384;SDS011;44185;47.844;8.966;2023-08-31T11:20:36;4.75;;;2.10;;
58384;SDS011;44185;47.844;8.966;2023-08-31T11:23:03;2.95;;;2.45;;
58384;SDS011;44185;47.844;8.966;2023-08-31T11:25:30;7.97;;;2.83;;
58384;SDS011;44185;47.844;8.966;2023-08-31T11:27:56;3.08;;;1.95;;
58384;SDS011;44185;47.844;8.966;2023-08-31T11:30:22;2.88;;;1.95;;
58384;SDS011;44185;47.844;8.966;2023-08-31T11:32:50;3.53;;;2.30;;
58384;SDS011;44185;47.844;8.966;2023-08-31T11:35:16;4.47;;;2.30;;
58384;SDS011;44185;47.844;8.966;2023-08-31T11:37:43;3.05;;;1.70;;
58384;SDS011;44185;47.844;8.966;2023-08-31T11:40:11;3.80;;;2.00;;
58384;SDS011;44185;47.844;8.966;2023-08-31T11:42:38;7.03;;;2.40;;
58384;SDS011;44185;47.844;8.966;2023-08-31T11:45:06;4.47;;;2.15;;
58384;SDS011;44185;47.844;8.966;2023-08-31T11:47:34;4.90;;;2.10;;
58384;SDS011;44185;47.844;8.966;2023-08-31T11:50:00;3.40;;;2.15;;
58384;SDS011;44185;47.844;8.966;2023-08-31T11:52:26;2.92;;;2.05;;
58384;SDS011;44185;47.844;8.966;2023-08-31T11:54:52;5.15;;;2.15;;
58384;SDS011;44185;47.844;8.966;2023-08-31T11:57:20;7.60;;;2.47;;
58384;SDS011;44185;47.844;8.966;2023-08-31T11:59:50;3.65;;;2.05;;
58384;SDS011;44185;47.844;8.966;2023-08-31T12:02:16;4.53;;;2.05;;
58384;SDS011;44185;47.844;8.966;2023-08-31T12:04:44;6.60;;;2.28;;
58384;SDS011;44185;47.844;8.966;2023-08-31T12:07:11;6.43;;;2.30;;
58384;SDS011;44185;47.844;8.966;2023-08-31T12:09:37;2.55;;;2.05;;
58384;SDS011;44185;47.844;8.966;2023-08-31T12:12:02;5.13;;;2.10;;
58384;SDS011;44185;47.844;8.966;2023-08-31T12:14:29;2.20;;;1.80;;
58384;SDS011;44185;47.844;8.966;2023-08-31T12:17:00;5.93;;;2.22;;
58384;SDS011;44185;47.844;8.966;2023-08-31T12:19:26;5.03;;;1.88;;
58384;SDS011;44185;47.844;8.966;2023-08-31T12:21:52;3.47;;;2.15;;
58384;SDS011;44185;47.844;8.966;2023-08-31T12:24:18;3.70;;;2.38;;
58384;SDS011;44185;47.844;8.966;2023-08-31T12:26:43;5.35;;;2.58;;
58384;SDS011;44185;47.844;8.966;2023-08-31T12:29:08;3.85;;;1.98;;
58384;SDS011;44185;47.844;8.966;2023-08-31T12:31:36;6.40;;;2.30;;
58384;SDS011;44185;47.844;8.966;2023-08-31T12:34:01;5.75;;;2.53;;
58384;SDS011;44185;47.844;8.966;2023-08-31T12:36:27;2.58;;;2.10;;
58384;SDS011;44185;47.844;8.966;2023-08-31T12:38:52;5.43;;;2.17;;
58384;SDS011;44185;47.844;8.966;2023-08-31T12:41:17;4.13;;;2.10;;
58384;SDS011;44185;47.844;8.966;2023-08-31T12:43:43;5.13;;;1.95;;
58384;SDS011;44185;47.844;8.966;2023-08-31T12:46:08;3.85;;;1.98;;
58384;SDS011;44185;47.844;8.966;2023-08-31T12:48:35;4.00;;;2.33;;
58384;SDS011;44185;47.844;8.966;2023-08-31T12:51:01;6.22;;;2.08;;
58384;SDS011;44185;47.844;8.966;2023-08-31T12:53:26;3.20;;;2.10;;
58384;SDS011;44185;47.844;8.966;2023-08-31T12:55:52;3.90;;;2.15;;
58384;SDS011;44185;47.844;8.966;2023-08-31T12:58:17;4.93;;;2.13;;
58384;SDS011;44185;47.844;8.966;2023-08-31T13:00:43;3.70;;;1.92;;
58384;SDS011;44185;47.844;8.966;2023-08-31T13:03:08;5.75;;;2.33;;
58384;SDS011;44185;47.844;8.966;2023-08-31T13:05:38;4.13;;;2.42;;
58384;SDS011;44185;47.844;8.966;2023-08-31T13:10:29;4.55;;;2.38;;
58384;SDS011;44185;47.844;8.966;2023-08-31T13:12:54;5.25;;;2.10;;
58384;SDS011;44185;47.844;8.966;2023-08-31T13:15:20;2.67;;;1.80;;
58384;SDS011;44185;47.844;8.966;2023-08-31T13:17:45;3.40;;;2.00;;
58384;SDS011;44185;47.844;8.966;2023-08-31T13:20:11;4.53;;;1.70;;
58384;SDS011;44185;47.844;8.966;2023-08-31T13:22:38;5.28;;;2.20;;
58384;SDS011;44185;47.844;8.966;2023-08-31T13:25:03;4.82;;;2.08;;
58384;SDS011;44185;47.844;8.966;2023-08-31T13:27:29;5.68;;;2.00;;
58384;SDS011;44185;47.844;8.966;2023-08-31T13:29:54;3.65;;;1.90;;
58384;SDS011;44185;47.844;8.966;2023-08-31T13:32:20;3.38;;;2.00;;
58384;SDS011;44185;47.844;8.966;2023-08-31T13:34:45;4.38;;;2.15;;
58384;SDS011;44185;47.844;8.966;2023-08-31T13:37:11;5.80;;;2.10;;
58384;SDS011;44185;47.844;8.966;2023-08-31T13:39:38;2.33;;;1.83;;
58384;SDS011;44185;47.844;8.966;2023-08-31T13:42:03;2.67;;;2.10;;
58384;SDS011;44185;47.844;8.966;2023-08-31T13:44:29;4.77;;;2.20;;
58384;SDS011;44185;47.844;8.966;2023-08-31T13:46:54;6.15;;;2.10;;
58384;SDS011;44185;47.844;8.966;2023-08-31T13:49:20;5.05;;;1.85;;
58384;SDS011;44185;47.844;8.966;2023-08-31T13:51:45;2.55;;;1.80;;
58384;SDS011;44185;47.844;8.966;2023-08-31T13:54:11;4.50;;;1.80;;
58384;SDS011;44185;47.844;8.966;2023-08-31T13:56:37;4.88;;;2.10;;
58384;SDS011;44185;47.844;8.966;2023-08-31T13:59:03;8.63;;;2.10;;
58384;SDS011;44185;47.844;8.966;2023-08-31T14:01:28;2.08;;;1.90;;
58384;SDS011;44185;47.844;8.966;2023-08-31T14:03:54;6.13;;;2.92;;
58384;SDS011;44185;47.844;8.966;2023-08-31T14:06:19;2.47;;;1.75;;
58384;SDS011;44185;47.844;8.966;2023-08-31T14:08:45;3.00;;;1.80;;
58384;SDS011;44185;47.844;8.966;2023-08-31T14:11:10;5.78;;;2.10;;
58384;SDS011;44185;47.844;8.966;2023-08-31T14:13:37;3.42;;;1.92;;
58384;SDS011;44185;47.844;8.966;2023-08-31T14:16:02;3.60;;;1.98;;
58384;SDS011;44185;47.844;8.966;2023-08-31T14:18:28;4.90;;;2.30;;
58384;SDS011;44185;47.844;8.966;2023-08-31T14:20:54;2.03;;;1.73;;
58384;SDS011;44185;47.844;8.966;2023-08-31T14:23:20;4.90;;;1.90;;
58384;SDS011;44185;47.844;8.966;2023-08-31T14:25:45;9.00;;;2.13;;
58384;SDS011;44185;47.844;8.966;2023-08-31T14:28:11;4.70;;;2.28;;
58384;SDS011;44185;47.844;8.966;2023-08-31T14:30:37;3.00;;;1.80;;
58384;SDS011;44185;47.844;8.966;2023-08-31T14:33:03;3.22;;;1.90;;
58384;SDS011;44185;47.844;8.966;2023-08-31T14:35:29;4.65;;;2.20;;
58384;SDS011;44185;47.844;8.966;2023-08-31T14:37:54;3.30;;;1.70;;
58384;SDS011;44185;47.844;8.966;2023-08-31T14:40:20;4.43;;;1.75;;
58384;SDS011;44185;47.844;8.966;2023-08-31T14:42:45;3.80;;;1.92;;
58384;SDS011;44185;47.844;8.966;2023-08-31T14:45:11;6.70;;;2.30;;
58384;SDS011;44185;47.844;8.966;2023-08-31T14:47:38;4.97;;;2.05;;
58384;SDS011;44185;47.844;8.966;2023-08-31T14:50:04;4.20;;;2.13;;